Havre City County Airport
KHVR : now visible

Airfield :











YOU CAN JOIN US ON...

 
LOGIN :

Register | Disclaimer

   EN    FR    IT 

 









Legend :    VFR   Marginal VFR   IFR   Intensive IFR   Very Intensive IFR
Visi :
Ceiling :
>= 8 km
>= 3000ft
5 to 8 km
1000 to 3000 ft
1500m to 5 km
500 to 1000 ft
800 to 1500m
200 to 500 ft
< 800m
< 200 ft
Symbols :   Thunderstorms  Fog  Heavy snow  Heavy precipitations  Wind > 20 kt






- Airport Elevation : 2591 ft


KHVR - Havre City County

CURRENT METAR :
  • 030653Z AUTO 05008G21KT 10SM OVC100 17/14 A2992 RMK AO2 LTG DSNT E AND SE AND NW RAB0556E31 TSE13 SLP118 P0006 T01720139 403000122

EXPIRED METARs :
  • 030619Z AUTO 14013G20KT 6SM VCTS RA BKN060 OVC075 19/12 A2994 RMK AO2 LTG DSNT E-S RAB0556 TSE13 P0006 T01890122
  • 030605Z AUTO 14005KT 4SM +TSRA BKN070 OVC090 20/11 A2994 RMK AO2 LTG DSNT SE AND S RAB0556 P0003 T02000111
  • 030553Z AUTO VRB03KT 1 3/4SM TS HZ FEW070 OVC090 21/11 A2996 RMK AO2 LTG DSNT S-W TSB49 PRESRR SLP127 T02110106 10300 20211 53017
  • 030453Z AUTO 05015G22KT 10SM CLR 22/10 A2991 RMK AO2 SLP111 T02220100

TAF KHVR
Valid from the 03 at 06:00 until the 04 at 06:00 UTC


030524Z 0306/0406 05012KT P6SM VCTS SCT060CB BKN090
TEMPO 0306/0310 VRB15G30KT 5SM -TSRA BR BKN040CB
FM031000 VRB06KT P6SM VCSH SCT090 BKN250
FM031800 06012KT P6SM -SHRA BKN050
PROB30 0322/0402 VRB20G40KT 4SM TSRA BR OVC025CB
KZLC FIR / North America



MET'MAP, your aeronautical weather chart ! - Copyright ORBIFLY December 2007 - Disclaimer

ORBIFLY MET'MAP TEAM :

Programming & Development : Alexandra Zaïnal
Original concept : Baudouin d'Aumeries
Technical & hardware support : Manuel Goepfert
Assistance : Marc-Olivier Méhu




SOURCES & CREDITS :

   NOAA       Earth
Advisory